Latest Weather Observations for Brisbane

IDQ60801

Issued at 7:33 pm EST Monday 25 July 2016 (issued every 30 minutes, with the page automatically refreshed every 10 minutes)

About weather observations | Map of weather stations | Latest weather observations for QLD | Other Formats
Station Details ID: 040913 Name: BRISBANE Lat: -27.48 Lon: 153.04 Height: 8.13 m
Data from the previous 72 hours. | See also: Recent months at Brisbane
Date/Time
EST
Temp
°C
App
Temp
°C
Dew
Point
°C
Rel
Hum
%
Delta-T
°C
Wind Press
QNH
hPa
Press
MSL
hPa
Rain since
9am
mm
Dir  Spd
km/h
Gust
km/h
Spd
kts
Gust
kts
25/07:30pm 16.9 14.8 3.9 42 6.0 SW 4 6 2 3 1017.5 1017.5 0.0
25/07:00pm 17.7 15.5 3.6 39 6.6 SW 4 7 2 4 1017.2 1017.2 0.0
25/06:30pm 18.2 15.9 2.9 36 7.1 WSW 4 7 2 4 1016.9 1016.9 0.0
25/06:00pm 18.6 16.4 3.6 37 7.0 W 4 9 2 5 1016.3 1016.3 0.0
25/05:30pm 19.8 17.0 3.1 33 7.8 W 7 20 4 11 1015.8 1015.8 0.0
25/05:00pm 20.5 17.7 3.3 32 8.1 WNW 7 15 4 8 1015.7 1015.7 0.0
25/04:30pm 21.2 18.1 3.4 31 8.5 WNW 9 15 5 8 1015.6 1015.6 0.0
25/04:00pm 21.4 18.6 3.1 30 8.7 W 7 17 4 9 1015.5 1015.5 0.0
25/03:30pm 21.2 18.1 3.4 31 8.5 WNW 9 17 5 9 1015.2 1015.2 0.0
25/03:00pm 21.4 18.2 3.1 30 8.7 WNW 9 17 5 9 1015.1 1015.1 0.0
25/02:30pm 20.8 16.8 2.6 30 8.5 WNW 13 20 7 11 1015.1 1015.1 0.0
25/02:00pm 21.8 17.4 2.5 28 9.1 WNW 15 26 8 14 1015.4 1015.4 0.0
25/01:30pm 22.0 18.4 3.2 29 9.0 W 11 26 6 14 1015.6 1015.6 0.0
25/01:00pm 21.0 18.4 4.1 33 8.1 WNW 7 15 4 8 1016.0 1016.0 0.0
25/12:30pm 20.6 17.5 3.8 33 8.0 W 9 22 5 12 1016.5 1016.5 0.0
25/12:00pm 19.8 16.6 3.1 33 7.8 W 9 19 5 10 1016.9 1016.9 0.0
25/11:30am 19.7 17.1 4.2 36 7.4 WNW 7 13 4 7 1017.4 1017.4 0.0
25/11:00am 19.2 16.5 3.8 36 7.3 WSW 7 15 4 8 1018.1 1018.1 0.0
25/10:30am 18.2 15.1 3.7 38 6.8 W 9 19 5 10 1018.4 1018.4 0.0
25/10:00am 17.8 15.1 3.7 39 6.6 WSW 7 15 4 8 1018.8 1018.8 0.0
25/09:30am 17.5 15.1 4.5 42 6.2 SW 6 13 3 7 1018.9 1018.9 0.0
25/09:00am 16.9 14.3 4.3 43 5.9 WSW 7 13 4 7 1018.8 1018.8 0.0
25/08:30am 16.3 13.9 5.3 48 5.3 SW 7 11 4 6 1018.7 1018.7 0.0
25/08:00am 15.1 13.0 5.6 53 4.5 WSW 6 11 3 6 1018.2 1018.2 0.0
25/07:30am 15.2 12.9 4.6 49 4.9 WSW 6 11 3 6 1017.9 1017.9 0.0
25/07:00am 14.9 12.6 4.9 51 4.7 W 6 9 3 5 1017.4 1017.4 0.0
25/06:30am 15.5 12.6 4.8 49 5.0 W 9 17 5 9 1017.1 1017.1 0.0
25/06:00am 15.6 13.3 4.6 48 5.1 WSW 6 9 3 5 1016.5 1016.5 0.0
25/05:30am 15.9 13.6 4.6 47 5.3 WSW 6 9 3 5 1016.2 1016.2 0.0
25/05:00am 15.3 13.5 5.5 52 4.7 SW 4 7 2 4 1015.7 1015.7 0.0
25/04:30am 14.9 13.6 6.0 55 4.3 SSW 2 4 1 2 1015.4 1015.4 0.0
25/04:00am 15.6 13.7 4.9 49 5.0 SW 4 7 2 4 1015.2 1015.2 0.0
25/03:30am 15.6 13.8 5.2 50 4.9 SW 4 9 2 5 1015.1 1015.1 0.0
25/03:00am 15.7 13.5 5.3 50 4.9 SW 6 9 3 5 1015.1 1015.1 0.0
25/02:30am 14.5 13.2 5.8 56 4.1 WSW 2 6 1 3 1015.2 1015.2 0.0
25/02:00am 15.0 13.3 5.8 54 4.4 WNW 4 7 2 4 1015.1 1015.1 0.0
25/01:30am 14.0 12.5 6.6 61 3.6 WNW 4 7 2 4 1015.3 1015.3 0.0
25/01:00am 13.3 13.2 9.5 78 1.9 CALM 0 0 0 0 1015.5 1015.5 0.0
25/12:30am 13.6 13.7 10.0 79 1.9 CALM 0 0 0 0 1015.7 1015.7 0.0
25/12:00am 13.1 13.1 9.7 80 1.7 CALM 0 0 0 0 1015.7 1015.7 0.0
 
Date/Time
EST
Temp
°C
App
Temp
°C
Dew
Point
°C
Rel
Hum
%
Delta-T
°C
Wind Press
QNH
hPa
Press
MSL
hPa
Rain since
9am
mm
Dir  Spd
km/h
Gust
km/h
Spd
kts
Gust
kts
24/11:30pm 12.9 12.7 9.0 77 2.0 CALM 0 2 0 1 1015.5 1015.5 0.0
24/11:00pm 13.6 13.3 8.7 72 2.5 CALM 0 0 0 0 1015.7 1015.7 0.0
24/10:30pm 14.8 14.3 9.2 69 2.9 WNW 2 6 1 3 1015.6 1015.6 0.0
24/10:00pm 15.1 14.8 8.8 66 3.2 CALM 0 0 0 0 1015.5 1015.5 0.0
24/09:30pm 16.3 15.4 9.3 63 3.6 NW 4 6 2 3 1015.2 1015.2 0.0
24/09:00pm 16.0 15.2 9.7 66 3.3 NNW 4 7 2 4 1014.9 1014.9 0.0
24/08:30pm 14.8 14.3 9.4 70 2.8 NE 2 6 1 3 1015.0 1015.0 0.0
24/08:00pm 15.9 15.3 9.1 64 3.5 N 2 6 1 3 1015.1 1015.1 0.0
24/07:30pm 16.3 16.3 9.7 65 3.4 CALM 0 4 0 2 1014.8 1014.8 0.0
24/07:00pm 16.1 16.1 9.8 66 3.3 CALM 0 2 0 1 1014.9 1014.9 0.0
24/06:30pm 16.2 15.7 9.2 63 3.6 N 2 4 1 2 1014.5 1014.5 0.0
24/06:00pm 17.2 16.7 9.4 60 4.1 ENE 2 4 1 2 1014.0 1014.0 0.0
24/05:30pm 18.0 16.9 8.6 54 4.9 NE 4 7 2 4 1013.7 1013.7 0.0
24/05:00pm 19.0 17.4 8.1 49 5.6 ENE 6 9 3 5 1013.5 1013.5 0.0
24/04:30pm 19.8 17.7 8.2 47 6.0 ENE 9 15 5 8 1013.1 1013.1 0.0
24/04:00pm 20.4 18.5 7.4 43 6.7 NE 7 13 4 7 1012.9 1012.9 0.0
24/03:30pm 21.1 19.2 7.7 42 6.9 ENE 7 13 4 7 1013.1 1013.1 0.0
24/03:00pm 21.1 18.6 6.6 39 7.3 ENE 9 15 5 8 1012.9 1012.9 0.0
24/02:30pm 21.6 19.5 6.7 38 7.6 ENE 7 19 4 10 1013.3 1013.3 0.0
24/02:00pm 22.3 20.3 6.1 35 8.2 NE 6 13 3 7 1013.7 1013.7 0.0
24/01:30pm 22.1 20.1 6.3 36 8.0 ENE 6 11 3 6 1014.3 1014.3 0.0
24/01:00pm 21.2 18.7 3.9 32 8.3 E 6 11 3 6 1014.6 1014.6 0.0
24/12:30pm 21.9 20.0 3.1 29 9.0 NW 2 7 1 4 1015.0 1015.0 0.0
24/12:00pm 22.1 20.0 3.7 30 8.9 NNE 4 11 2 6 1015.4 1015.4 0.0
24/11:30am 21.0 18.8 0.8 26 9.1 N 2 6 1 3 1016.1 1016.1 0.0
24/11:00am 20.2 17.6 1.1 28 8.6 E 4 7 2 4 1016.6 1016.6 0.0
24/10:30am 20.0 17.6 2.4 31 8.2 SSW 4 7 2 4 1017.1 1017.1 0.0
24/10:00am 19.2 16.9 2.6 33 7.7 WSW 4 7 2 4 1017.4 1017.4 0.0
24/09:30am 18.5 16.2 0.6 30 7.9 SSE 2 7 1 4 1017.4 1017.4 0.0
24/09:00am 17.7 15.3 2.1 35 7.0 WSW 4 7 2 4 1016.9 1016.9 0.0
24/08:30am 17.2 15.4 3.5 40 6.3 WNW 2 6 1 3 1016.9 1016.9 0.0
24/08:00am 16.1 14.4 3.9 44 5.6 W 2 6 1 3 1016.5 1016.5 0.0
24/07:30am 14.4 12.7 3.8 49 4.8 SSW 2 6 1 3 1016.8 1016.8 0.0
24/07:00am 13.4 11.6 3.5 51 4.4 S 2 6 1 3 1016.1 1016.1 0.0
24/06:30am 13.9 11.7 3.4 49 4.7 SW 4 7 2 4 1015.8 1015.8 0.0
24/06:00am 14.1 11.6 3.6 49 4.7 SW 6 11 3 6 1015.4 1015.4 0.0
24/05:30am 14.1 12.3 3.6 49 4.8 S 2 6 1 3 1014.5 1014.5 0.0
24/05:00am 14.3 12.1 3.2 47 5.0 SW 4 9 2 5 1014.1 1014.1 0.0
24/04:30am 14.7 12.5 3.2 46 5.2 SE 4 7 2 4 1014.0 1014.0 0.0
24/04:00am 15.4 12.6 2.2 41 5.9 WSW 6 13 3 7 1014.0 1014.0 0.0
24/03:30am 15.6 12.5 3.4 44 5.6 WSW 9 19 5 10 1013.6 1013.6 0.0
24/03:00am 16.0 13.3 3.8 44 5.6 WSW 7 13 4 7 1013.9 1013.9 0.0
24/02:30am 16.2 13.3 4.6 46 5.5 W 9 19 5 10 1013.7 1013.7 0.0
24/02:00am 15.6 13.8 5.2 50 4.9 WSW 4 6 2 3 1014.1 1014.1 0.0
24/01:30am 16.1 13.9 5.1 48 5.2 W 6 13 3 7 1014.2 1014.2 0.0
24/01:00am 16.2 14.8 5.5 49 5.1 WSW 2 6 1 3 1014.1 1014.1 0.0
24/12:30am 16.8 15.0 5.4 47 5.5 WSW 4 7 2 4 1013.8 1013.8 0.0
24/12:00am 18.0 15.6 5.2 43 6.2 W 7 15 4 8 1013.5 1013.5 0.0
 
Date/Time
EST
Temp
°C
App
Temp
°C
Dew
Point
°C
Rel
Hum
%
Delta-T
°C
Wind Press
QNH
hPa
Press
MSL
hPa
Rain since
9am
mm
Dir  Spd
km/h
Gust
km/h
Spd
kts
Gust
kts
23/11:30pm 18.3 16.0 5.5 43 6.2 WSW 7 15 4 8 1013.6 1013.6 0.0
23/11:00pm 18.2 16.1 5.8 44 6.1 WSW 6 11 3 6 1013.2 1013.2 0.0
23/10:30pm 18.9 16.9 6.1 43 6.3 SW 6 9 3 5 1013.0 1013.0 0.0
23/10:00pm 18.9 17.3 6.4 44 6.2 SW 4 13 2 7 1012.9 1012.9 0.0
23/09:30pm 20.1 18.2 6.5 41 6.8 WSW 6 15 3 8 1012.6 1012.6 0.0
23/09:00pm 20.7 18.2 6.6 40 7.1 WSW 9 24 5 13 1012.3 1012.3 0.0
23/08:30pm 21.1 19.1 7.3 41 7.1 WSW 7 17 4 9 1012.1 1012.1 0.0
23/08:00pm 21.8 20.1 8.3 42 7.1 WSW 7 19 4 10 1011.6 1011.6 0.0
23/07:30pm 22.3 20.9 8.8 42 7.2 SW 6 9 3 5 1010.8 1010.8 0.0
23/07:00pm 23.3 21.1 9.3 41 7.6 WSW 11 26 6 14 1010.6 1010.6 0.0
23/06:30pm 23.8 22.5 9.8 41 7.6 WSW 7 20 4 11 1010.0 1010.0 0.0
23/06:00pm 24.6 22.7 10.5 41 7.8 W 11 19 6 10 1009.4 1009.4 0.0
23/05:30pm 25.4 24.2 11.6 42 7.8 W 9 24 5 13 1009.2 1009.2 0.0
23/05:00pm 26.3 24.8 12.0 41 8.2 WSW 11 19 6 10 1008.7 1008.7 0.0
23/04:30pm 27.8 26.4 12.2 38 9.0 W 11 20 6 11 1008.2 1008.2 0.0
23/04:00pm 28.3 26.9 12.2 37 9.4 W 11 24 6 13 1007.8 1007.8 0.0
23/03:30pm 28.6 26.4 12.1 36 9.6 W 15 28 8 15 1007.5 1007.5 0.0
23/03:00pm 28.8 26.3 12.2 35 9.7 WNW 17 35 9 19 1007.4 1007.4 0.0
23/02:30pm 28.8 26.5 11.8 35 9.8 W 15 30 8 16 1007.2 1007.2 0.0
23/02:00pm 28.5 24.9 12.0 36 9.6 WNW 22 43 12 23 1007.3 1007.3 0.0
23/01:30pm 28.9 26.5 12.8 37 9.5 WNW 17 28 9 15 1007.4 1007.4 0.0
23/01:00pm 28.7 26.9 13.4 39 9.1 W 15 33 8 18 1007.5 1007.5 0.0
23/12:30pm 27.1 24.7 13.8 44 7.9 W 19 43 10 23 1007.9 1007.9 0.0
23/12:00pm 27.1 26.3 14.1 44 7.8 W 11 20 6 11 1008.3 1008.3 0.0
23/11:30am 27.1 25.9 15.1 47 7.3 W 15 28 8 15 1008.5 1008.5 0.0
23/11:00am 26.7 26.2 16.0 52 6.6 WSW 13 30 7 16 1008.8 1008.8 0.0
23/10:30am 27.5 27.8 16.1 49 7.0 WNW 9 22 5 12 1009.1 1009.1 0.0
23/10:00am 27.4 28.1 17.0 53 6.5 NW 9 15 5 8 1009.1 1009.1 0.0
23/09:30am 26.9 28.3 17.4 56 6.0 NW 6 11 3 6 1009.5 1009.5 0.0
23/09:00am 26.2 27.6 17.3 58 5.6 NW 6 11 3 6 1009.7 1009.7 0.0
23/08:30am 25.3 26.8 16.7 59 5.3 N 4 7 2 4 1009.9 1009.9 0.0
23/08:00am 24.0 26.0 17.0 65 4.3 NNW 2 7 1 4 1010.0 1010.0 0.0
23/07:30am 22.0 24.6 17.6 76 2.7 CALM 0 0 0 0 1009.9 1009.9 0.0
23/07:00am 20.9 22.4 16.7 77 2.6 NNE 4 6 2 3 1009.6 1009.6 0.0
23/06:30am 21.0 22.5 16.6 76 2.7 N 4 6 2 3 1009.3 1009.3 0.0
23/06:00am 21.3 22.7 16.5 74 2.9 NNW 4 7 2 4 1009.0 1009.0 0.0
23/05:30am 21.8 22.4 16.7 73 3.1 NNW 9 19 5 10 1009.1 1009.1 0.0
23/05:00am 21.5 22.9 16.5 73 3.0 N 4 9 2 5 1008.8 1008.8 0.0
23/04:30am 21.7 22.7 16.4 72 3.2 N 6 13 3 7 1008.8 1008.8 0.0
23/04:00am 21.9 23.0 16.6 72 3.2 N 6 13 3 7 1008.8 1008.8 0.0
23/03:30am 21.3 23.1 16.5 74 2.9 NNW 2 6 1 3 1009.0 1009.0 0.0
23/03:00am 21.5 22.4 16.5 73 3.0 W 7 13 4 7 1009.4 1009.4 0.0
23/02:30am 22.3 23.1 16.3 69 3.6 NW 7 15 4 8 1009.4 1009.4 0.0
23/02:00am 21.2 22.3 16.6 75 2.8 NNW 6 9 3 5 1009.4 1009.4 0.0
23/01:30am 21.2 22.5 17.6 80 2.2 NW 7 13 4 7 1009.7 1009.7 0.0
23/01:00am 18.2 20.6 16.9 92 0.8 CALM 0 2 0 1 1010.0 1010.0 0.0
23/12:30am 18.5 21.0 17.2 92 0.8 CALM 0 0 0 0 1010.3 1010.3 0.0
23/12:00am 18.6 20.7 17.3 92 0.8 ENE 2 4 1 2 1010.5 1010.5 0.0
 
Date/Time
EST
Temp
°C
App
Temp
°C
Dew
Point
°C
Rel
Hum
%
Delta-T
°C
Wind Press
QNH
hPa
Press
MSL
hPa
Rain since
9am
mm
Dir  Spd
km/h
Gust
km/h
Spd
kts
Gust
kts
22/11:30pm 19.1 21.4 17.6 91 0.9 ENE 2 6 1 3 1010.8 1010.8 0.0
22/11:00pm 18.9 20.8 17.6 92 0.8 E 4 6 2 3 1010.9 1010.9 0.0
22/10:30pm 18.7 20.7 17.0 90 1.0 SE 2 2 1 1 1011.1 1011.1 0.0
22/10:00pm 19.1 21.6 17.2 89 1.2 CALM 0 0 0 0 1011.4 1011.4 0.0
22/09:30pm 19.6 21.7 17.2 86 1.5 E 2 6 1 3 1011.4 1011.4 0.0
22/09:00pm 20.5 22.9 17.9 85 1.6 ENE 2 6 1 3 1011.4 1011.4 0.0
22/08:30pm 20.9 22.9 17.9 83 1.9 NNE 4 9 2 5 1011.4 1011.4 0.0
22/08:00pm 20.8 22.7 17.6 82 2.0 NE 4 6 2 3 1011.6 1011.6 0.0

Other Formats:

Comma delimited format used in spreadsheet applications
http://www.bom.gov.au/fwo/IDQ60801/IDQ60801.94576.axf

JavaScript Object Notation format (JSON) in row-major order
http://www.bom.gov.au/fwo/IDQ60801/IDQ60801.94576.json